createdAt,value
2023-02-15T00:00:24.068Z,21.83
2023-02-15T00:02:50.905Z,25.00
2023-02-15T00:05:17.845Z,23.53
2023-02-15T00:07:44.636Z,22.17
2023-02-15T00:10:12.969Z,23.50
2023-02-15T00:12:39.773Z,21.80
2023-02-15T00:15:06.931Z,22.40
2023-02-15T00:17:33.727Z,22.47
2023-02-15T00:20:00.471Z,24.57
2023-02-15T00:22:27.343Z,21.53
2023-02-15T00:24:54.106Z,23.23
2023-02-15T00:27:21.149Z,28.40
2023-02-15T00:29:48.607Z,24.30
2023-02-15T00:32:15.391Z,24.50
2023-02-15T00:34:44.688Z,29.17
2023-02-15T00:37:11.417Z,23.30
2023-02-15T00:39:38.197Z,26.67
2023-02-15T00:42:05.063Z,24.33
2023-02-15T00:44:31.808Z,23.20
2023-02-15T00:46:58.557Z,22.60
2023-02-15T00:49:25.362Z,24.63
2023-02-15T00:51:52.125Z,22.30
2023-02-15T00:54:19.010Z,24.87
2023-02-15T00:56:45.751Z,25.77
2023-02-15T00:59:12.617Z,21.10
2023-02-15T01:01:39.454Z,23.63
2023-02-15T01:04:06.364Z,22.77
2023-02-15T01:06:33.236Z,24.37
2023-02-15T01:09:00.155Z,23.50
2023-02-15T01:11:26.926Z,26.07
2023-02-15T01:13:57.960Z,23.63
2023-02-15T01:16:27.601Z,27.93
2023-02-15T01:18:55.593Z,24.83
2023-02-15T01:21:25.546Z,22.97
2023-02-15T01:23:53.039Z,22.67
2023-02-15T01:26:20.232Z,21.90
2023-02-15T01:28:47.352Z,25.07
2023-02-15T01:31:22.218Z,24.23
2023-02-15T01:33:49.680Z,22.40
2023-02-15T01:36:18.291Z,22.87
2023-02-15T01:38:45.764Z,25.40
2023-02-15T01:41:23.760Z,25.13
2023-02-15T01:44:00.849Z,20.70
2023-02-15T01:46:49.776Z,22.90
2023-02-15T01:49:21.733Z,26.40
2023-02-15T01:51:53.697Z,24.13
2023-02-15T01:54:35.317Z,19.97
2023-02-15T01:57:10.129Z,22.33
2023-02-15T01:59:40.370Z,23.97
2023-02-15T02:02:12.688Z,27.83
2023-02-15T02:04:49.759Z,29.40
2023-02-15T02:07:21.576Z,24.97
2023-02-15T02:09:49.836Z,25.03
2023-02-15T02:12:18.995Z,25.83
2023-02-15T02:14:48.489Z,25.33
2023-02-15T02:17:36.780Z,24.30
2023-02-15T02:21:05.115Z,22.77
2023-02-15T02:24:00.478Z,24.43
2023-02-15T02:27:08.091Z,23.37
2023-02-15T02:29:57.716Z,25.20
2023-02-15T02:36:41.298Z,25.63
2023-02-15T02:39:48.585Z,21.63
2023-02-15T02:42:39.694Z,26.10
2023-02-15T02:45:16.962Z,21.27
2023-02-15T02:48:08.849Z,22.50
2023-02-15T02:50:35.557Z,28.13
2023-02-15T02:53:02.353Z,22.37
2023-02-15T02:55:39.198Z,26.23
2023-02-15T02:58:21.232Z,23.10
2023-02-15T03:00:57.712Z,23.30
2023-02-15T03:03:54.295Z,23.90
2023-02-15T03:06:34.284Z,24.00
2023-02-15T03:09:20.007Z,21.77
2023-02-15T03:11:49.232Z,27.63
2023-02-15T03:14:20.070Z,23.80
2023-02-15T03:16:50.192Z,21.13
2023-02-15T03:19:26.755Z,27.97
2023-02-15T03:22:10.114Z,27.40
2023-02-15T03:25:07.479Z,28.07
2023-02-15T03:28:05.983Z,25.23
2023-02-15T03:30:36.038Z,33.90
2023-02-15T03:33:06.066Z,27.77
2023-02-15T03:35:53.916Z,26.90
2023-02-15T03:38:44.075Z,27.33
2023-02-15T03:41:14.183Z,31.70
2023-02-15T03:43:54.296Z,25.37
2023-02-15T03:46:57.128Z,23.47
2023-02-15T03:49:49.590Z,24.70
2023-02-15T03:52:18.856Z,31.57
2023-02-15T03:54:48.575Z,30.93
2023-02-15T03:57:44.905Z,29.23
2023-02-15T04:00:43.542Z,25.93
2023-02-15T04:03:16.466Z,33.67
2023-02-15T04:05:45.550Z,27.70
2023-02-15T04:08:13.743Z,27.93
2023-02-15T04:10:57.159Z,25.20
2023-02-15T04:13:31.692Z,25.90
2023-02-15T04:16:05.284Z,26.00
2023-02-15T04:19:00.151Z,23.47
2023-02-15T04:21:49.629Z,26.93
2023-02-15T04:24:36.556Z,24.27
2023-02-15T04:27:05.208Z,24.10
2023-02-15T04:29:32.849Z,19.87
2023-02-15T04:32:02.508Z,23.10
2023-02-15T04:34:29.319Z,25.10
2023-02-15T04:36:56.251Z,23.43
2023-02-15T04:39:23.024Z,25.13
2023-02-15T04:41:49.830Z,21.27
2023-02-15T04:44:16.873Z,23.63
2023-02-15T04:46:43.636Z,26.67
2023-02-15T04:49:11.918Z,23.03
2023-02-15T04:51:38.747Z,26.40
2023-02-15T04:54:05.572Z,23.80
2023-02-15T04:56:34.065Z,25.10
2023-02-15T04:59:01.006Z,22.70
2023-02-15T05:01:28.345Z,27.63
2023-02-15T05:03:55.278Z,26.10
2023-02-15T05:06:22.817Z,23.77
2023-02-15T05:09:03.393Z,24.67
2023-02-15T05:11:30.331Z,23.93
2023-02-15T05:13:57.146Z,32.80
2023-02-15T05:16:24.206Z,21.70
2023-02-15T05:18:51.284Z,23.97
2023-02-15T05:21:18.120Z,22.37
2023-02-15T05:23:44.864Z,24.20
2023-02-15T05:26:41.289Z,22.30
2023-02-15T05:29:17.073Z,26.97
2023-02-15T05:31:52.435Z,25.20
2023-02-15T05:34:22.353Z,25.30
2023-02-15T05:36:56.238Z,20.13
2023-02-15T05:39:23.061Z,22.60
2023-02-15T05:41:49.956Z,25.73
2023-02-15T05:44:16.756Z,24.53
2023-02-15T05:46:44.898Z,23.83
2023-02-15T05:49:11.597Z,27.60
2023-02-15T05:51:38.366Z,23.33
2023-02-15T05:54:05.114Z,25.33
2023-02-15T05:56:32.207Z,26.00
2023-02-15T05:58:58.999Z,25.47
2023-02-15T06:01:26.017Z,27.80
2023-02-15T06:03:53.300Z,23.97
2023-02-15T06:06:20.044Z,29.03
2023-02-15T06:08:46.977Z,26.97
2023-02-15T06:11:13.795Z,28.83
2023-02-15T06:13:40.597Z,24.70
2023-02-15T06:16:08.225Z,28.27
2023-02-15T06:18:35.790Z,26.37
2023-02-15T06:21:02.753Z,27.10
2023-02-15T06:23:29.575Z,30.60
2023-02-15T06:25:56.544Z,27.20
2023-02-15T06:28:23.410Z,25.77
2023-02-15T06:30:50.158Z,23.87
2023-02-15T06:33:16.876Z,25.87
2023-02-15T06:35:44.056Z,26.57
2023-02-15T06:38:10.891Z,30.60
2023-02-15T06:40:37.609Z,33.50
2023-02-15T06:43:04.976Z,23.97
2023-02-15T06:45:31.772Z,25.03
2023-02-15T06:47:58.541Z,32.73
2023-02-15T06:50:25.295Z,30.27
2023-02-15T06:52:58.182Z,27.07
2023-02-15T06:55:25.559Z,25.30
2023-02-15T06:57:52.656Z,33.67
2023-02-15T07:00:19.794Z,30.53
2023-02-15T07:02:46.772Z,28.77
2023-02-15T07:05:13.534Z,28.37
2023-02-15T07:07:40.292Z,36.50
2023-02-15T07:10:07.681Z,31.33
2023-02-15T07:12:43.505Z,29.20
2023-02-15T07:15:14.350Z,39.80
2023-02-15T07:17:41.811Z,34.80
2023-02-15T07:20:17.065Z,42.43
2023-02-15T07:22:44.321Z,36.37
2023-02-15T07:25:13.201Z,34.97
2023-02-15T07:27:40.388Z,32.90
2023-02-15T07:30:11.687Z,32.07
2023-02-15T07:32:58.880Z,37.40
2023-02-15T07:35:26.239Z,46.63
2023-02-15T07:37:53.996Z,34.17
2023-02-15T07:40:24.200Z,30.20
2023-02-15T07:42:55.825Z,28.07
2023-02-15T07:45:23.437Z,27.87
2023-02-15T07:47:50.252Z,22.67
2023-02-15T07:50:17.478Z,23.53
2023-02-15T07:52:44.230Z,28.23
2023-02-15T07:55:13.612Z,24.80
2023-02-15T07:57:49.513Z,25.23
2023-02-15T08:00:21.030Z,22.27
2023-02-15T08:03:15.522Z,25.47
2023-02-15T08:05:45.622Z,26.93
2023-02-15T08:08:32.278Z,23.27
2023-02-15T08:11:33.604Z,25.90
2023-02-15T08:14:09.389Z,26.70
2023-02-15T08:16:45.093Z,22.67
2023-02-15T08:19:19.448Z,22.63
2023-02-15T08:21:59.167Z,24.13
2023-02-15T08:24:32.581Z,24.47
2023-02-15T08:26:59.841Z,24.17
2023-02-15T08:29:29.397Z,27.67
2023-02-15T08:32:03.317Z,28.13
2023-02-15T08:34:35.272Z,24.57
2023-02-15T08:37:02.118Z,26.63
2023-02-15T08:39:29.650Z,27.20
2023-02-15T08:41:56.603Z,26.73
2023-02-15T08:44:23.648Z,22.87
2023-02-15T08:46:51.323Z,27.67
2023-02-15T08:49:21.401Z,24.80
2023-02-15T08:51:49.798Z,27.13
2023-02-15T08:54:20.285Z,22.80
2023-02-15T08:56:47.752Z,22.20
2023-02-15T08:59:19.411Z,24.83
2023-02-15T09:01:48.723Z,25.60
2023-02-15T09:04:16.690Z,40.60
2023-02-15T09:06:48.609Z,33.47
2023-02-15T09:09:17.968Z,33.97
2023-02-15T09:11:48.287Z,34.53
2023-02-15T09:14:21.861Z,31.13
2023-02-15T09:16:51.751Z,26.37
2023-02-15T09:19:21.757Z,25.37
2023-02-15T09:21:49.283Z,27.67
2023-02-15T09:24:18.208Z,19.60
2023-02-15T09:26:48.657Z,20.20
2023-02-15T09:29:17.377Z,22.17
2023-02-15T09:31:51.088Z,22.27
2023-02-15T09:34:21.278Z,21.77
2023-02-15T09:36:49.232Z,27.97
2023-02-15T09:39:20.398Z,23.27
2023-02-15T09:42:26.010Z,25.97
2023-02-15T09:45:18.781Z,24.77
2023-02-15T09:47:56.651Z,23.80
2023-02-15T09:50:49.879Z,24.63
2023-02-15T09:57:25.241Z,21.80
2023-02-15T10:00:26.654Z,22.42
2023-02-15T10:03:22.504Z,24.10
2023-02-15T10:06:12.559Z,22.60
2023-02-15T10:09:32.251Z,28.40
2023-02-15T10:12:37.019Z,25.38
2023-02-15T10:27:14.225Z,21.97
2023-02-15T10:33:22.611Z,22.97
2023-02-15T10:35:59.690Z,26.97
2023-02-15T10:39:05.712Z,20.73
2023-02-15T10:46:09.185Z,21.95
2023-02-15T10:49:56.516Z,21.93
2023-02-15T10:52:42.481Z,21.27
2023-02-15T10:56:26.556Z,20.40
2023-02-15T10:59:32.697Z,23.08
2023-02-15T11:02:22.533Z,19.52
2023-02-15T11:05:02.098Z,20.48
2023-02-15T11:07:43.771Z,21.83
2023-02-15T11:14:36.897Z,20.45
2023-02-15T11:17:36.983Z,23.05
2023-02-15T11:20:34.400Z,22.02
2023-02-15T11:23:06.162Z,22.80
2023-02-15T11:25:37.797Z,22.38
2023-02-15T11:28:23.334Z,21.17
2023-02-15T11:30:57.112Z,20.23
2023-02-15T11:33:39.365Z,21.77
2023-02-15T11:36:23.092Z,19.92
2023-02-15T11:39:22.332Z,19.55
2023-02-15T11:42:24.297Z,19.05
2023-02-15T11:45:19.174Z,19.35
2023-02-15T11:47:50.732Z,19.20
2023-02-15T11:50:28.407Z,18.65
2023-02-15T11:53:03.319Z,19.48
2023-02-15T11:55:35.992Z,18.95
2023-02-15T11:58:29.460Z,18.90
2023-02-15T12:01:15.400Z,23.95
2023-02-15T12:05:07.252Z,40.60
2023-02-15T12:11:21.997Z,18.85
2023-02-15T12:18:00.384Z,17.38
2023-02-15T12:20:33.601Z,21.38
2023-02-15T12:29:50.609Z,19.50
2023-02-15T12:29:57.564Z,18.10
2023-02-15T12:32:30.413Z,18.87
2023-02-15T12:36:32.182Z,18.87
2023-02-15T12:39:19.329Z,16.10
2023-02-15T12:42:03.203Z,18.60
2023-02-15T12:44:36.778Z,16.73
2023-02-15T12:47:28.882Z,18.50
2023-02-15T12:50:34.530Z,20.23
2023-02-15T12:53:45.017Z,19.10
2023-02-15T12:56:30.572Z,17.60
2023-02-15T12:59:30.473Z,18.43
2023-02-15T13:02:25.040Z,21.13
2023-02-15T13:05:03.881Z,24.37
2023-02-15T13:07:55.243Z,19.53
2023-02-15T13:10:38.087Z,20.53
2023-02-15T13:13:37.689Z,22.63
2023-02-15T13:16:23.615Z,18.63
2023-02-15T13:18:56.180Z,21.90
2023-02-15T13:21:40.972Z,16.50
2023-02-15T13:24:34.821Z,16.20
2023-02-15T13:27:15.433Z,18.93
2023-02-15T13:29:55.337Z,18.37
2023-02-15T13:32:34.763Z,21.50
2023-02-15T13:35:44.169Z,17.93
2023-02-15T13:38:48.269Z,21.87
2023-02-15T13:41:35.533Z,18.53
2023-02-15T13:44:43.000Z,17.23
2023-02-15T13:47:43.986Z,19.13
2023-02-15T13:50:51.222Z,18.03
2023-02-15T13:56:35.731Z,19.63
2023-02-15T13:59:27.825Z,20.40
2023-02-15T14:02:27.188Z,18.87
2023-02-15T14:05:30.721Z,17.27
2023-02-15T14:08:13.171Z,19.60
2023-02-15T14:11:19.910Z,19.33
2023-02-15T14:14:25.027Z,17.17
2023-02-15T14:17:15.941Z,20.70
2023-02-15T14:20:36.648Z,19.27
2023-02-15T14:23:29.318Z,18.43
2023-02-15T14:26:37.119Z,18.20
2023-02-15T14:29:55.214Z,20.07
2023-02-15T14:32:51.305Z,20.07
2023-02-15T14:35:27.065Z,19.90
2023-02-15T14:38:13.213Z,21.13
2023-02-15T14:41:23.669Z,17.83
2023-02-15T14:44:20.576Z,26.27
2023-02-15T14:47:19.098Z,26.50
2023-02-15T14:49:55.059Z,24.17
2023-02-15T14:52:42.142Z,27.83
2023-02-15T14:55:09.347Z,25.80
2023-02-15T14:57:37.307Z,26.07
2023-02-15T15:03:27.225Z,27.67
2023-02-15T15:06:02.312Z,26.53
2023-02-15T15:08:50.230Z,29.03
2023-02-15T15:11:42.516Z,25.07
2023-02-15T15:14:43.786Z,24.37
2023-02-15T15:17:39.494Z,25.13
2023-02-15T15:20:51.610Z,33.33
2023-02-15T15:26:40.750Z,34.57
2023-02-15T15:29:40.413Z,33.60
2023-02-15T15:32:21.335Z,38.00
2023-02-15T15:35:39.320Z,29.43
2023-02-15T15:38:18.791Z,31.03
2023-02-15T15:41:29.229Z,32.47
2023-02-15T15:44:35.123Z,30.47
2023-02-15T15:47:41.299Z,28.50
2023-02-15T15:50:19.123Z,23.33
2023-02-15T15:53:00.111Z,22.63
2023-02-15T15:55:31.619Z,21.50
2023-02-15T15:58:09.605Z,22.27
2023-02-15T16:00:54.290Z,18.63
2023-02-15T16:03:30.270Z,21.47
2023-02-15T16:06:03.020Z,23.53
2023-02-15T16:08:48.737Z,34.63
2023-02-15T16:11:23.843Z,25.23
2023-02-15T16:13:52.261Z,32.37
2023-02-15T16:16:34.035Z,26.27
2023-02-15T16:19:07.539Z,34.13
2023-02-15T16:21:42.070Z,30.23
2023-02-15T16:24:38.855Z,31.67
2023-02-15T16:27:27.436Z,29.40
2023-02-15T16:30:04.690Z,33.90
2023-02-15T16:32:37.371Z,30.27
2023-02-15T16:35:20.739Z,31.27
2023-02-15T16:37:53.018Z,32.27
2023-02-15T16:40:26.193Z,23.73
2023-02-15T16:42:58.262Z,27.20
2023-02-15T16:45:31.085Z,34.37
2023-02-15T16:48:20.970Z,32.93
2023-02-15T16:50:56.918Z,26.60
2023-02-15T16:53:28.470Z,28.77
2023-02-15T16:56:05.756Z,31.90
2023-02-15T16:58:52.580Z,31.20
2023-02-15T17:01:43.986Z,32.77
2023-02-15T17:04:21.543Z,29.90
2023-02-15T17:07:08.932Z,30.57
2023-02-15T17:09:55.830Z,31.98
2023-02-15T17:12:55.951Z,31.23
2023-02-15T17:15:34.246Z,31.80
2023-02-15T17:18:27.547Z,27.93
2023-02-15T17:21:07.989Z,30.80
2023-02-15T17:23:46.287Z,31.53
2023-02-15T17:26:28.041Z,31.50
2023-02-15T17:29:02.776Z,31.23
2023-02-15T17:31:34.074Z,32.63
2023-02-15T17:34:11.536Z,37.25
2023-02-15T17:37:00.263Z,35.03
2023-02-15T17:39:27.373Z,33.20
2023-02-15T17:42:00.224Z,31.67
2023-02-15T17:44:30.725Z,41.93
2023-02-15T17:46:58.291Z,31.83
2023-02-15T17:49:35.237Z,39.63
2023-02-15T17:52:03.256Z,37.30
2023-02-15T17:54:53.655Z,34.40
2023-02-15T17:57:31.151Z,32.97
2023-02-15T18:00:20.978Z,34.57
2023-02-15T18:03:06.701Z,35.50
2023-02-15T18:05:52.418Z,38.00
2023-02-15T18:08:46.440Z,36.83
2023-02-15T18:11:32.731Z,35.53
2023-02-15T18:14:21.778Z,41.10
2023-02-15T18:16:50.803Z,38.23
2023-02-15T18:19:29.014Z,40.70
2023-02-15T18:21:57.936Z,31.13
2023-02-15T18:24:27.030Z,39.20
2023-02-15T18:26:57.061Z,31.07
2023-02-15T18:29:23.845Z,30.30
2023-02-15T18:31:59.257Z,28.10
2023-02-15T18:34:36.001Z,29.30
2023-02-15T18:37:08.944Z,32.07
2023-02-15T18:39:56.936Z,42.20
2023-02-15T18:42:37.893Z,32.27
2023-02-15T18:45:41.945Z,30.93
2023-02-15T18:48:14.009Z,26.77
2023-02-15T18:50:45.247Z,32.37
2023-02-15T18:53:21.747Z,30.63
2023-02-15T18:55:54.424Z,37.53
2023-02-15T18:58:28.000Z,31.00
2023-02-15T19:00:55.089Z,39.57
2023-02-15T19:03:23.607Z,33.37
2023-02-15T19:05:54.910Z,33.97
2023-02-15T19:08:27.003Z,36.87
2023-02-15T19:11:02.519Z,34.17
2023-02-15T19:13:38.638Z,33.07
2023-02-15T19:16:06.400Z,30.97
2023-02-15T19:18:41.730Z,28.57
2023-02-15T19:21:19.852Z,29.47
2023-02-15T19:23:58.257Z,29.80
2023-02-15T19:26:44.884Z,36.73
2023-02-15T19:29:33.010Z,31.37
2023-02-15T19:32:14.242Z,31.07
2023-02-15T19:34:43.034Z,32.73
2023-02-15T19:37:42.290Z,29.30
2023-02-15T19:40:29.368Z,28.93
2023-02-15T19:43:03.784Z,29.43
2023-02-15T19:45:35.260Z,30.37
2023-02-15T19:48:46.634Z,28.47
2023-02-15T19:51:55.316Z,26.93
2023-02-15T19:54:37.501Z,27.13
2023-02-15T19:57:11.959Z,28.60
2023-02-15T19:59:44.490Z,26.03
2023-02-15T20:02:19.447Z,25.50
2023-02-15T20:04:52.763Z,28.77
2023-02-15T20:07:31.099Z,26.17
2023-02-15T20:10:07.995Z,27.53
2023-02-15T20:12:40.553Z,26.83
2023-02-15T20:15:34.334Z,28.80
2023-02-15T20:18:08.253Z,29.37
2023-02-15T20:21:01.809Z,26.23
2023-02-15T20:23:36.039Z,25.53
2023-02-15T20:26:39.880Z,26.10
2023-02-15T20:29:08.011Z,30.03
2023-02-15T20:31:35.225Z,26.97
2023-02-15T20:34:06.865Z,26.67
2023-02-15T20:36:41.140Z,24.30
2023-02-15T20:39:20.930Z,25.87
2023-02-15T20:41:55.962Z,22.90
2023-02-15T20:44:35.451Z,26.43
2023-02-15T20:47:19.093Z,26.43
2023-02-15T20:50:02.491Z,22.93
2023-02-15T20:52:33.348Z,24.67
2023-02-15T20:55:12.262Z,27.77
2023-02-15T20:57:42.404Z,22.93
2023-02-15T21:00:24.254Z,27.33
2023-02-15T21:03:01.992Z,24.63
2023-02-15T21:05:42.891Z,28.43
2023-02-15T21:08:17.906Z,25.27
2023-02-15T21:10:47.976Z,26.07
2023-02-15T21:13:35.201Z,25.23
2023-02-15T21:16:09.456Z,23.27
2023-02-15T21:19:05.324Z,23.03
2023-02-15T21:21:32.694Z,28.00
2023-02-15T21:24:14.385Z,22.63
2023-02-15T21:26:48.901Z,22.87
2023-02-15T21:29:36.787Z,22.17
2023-02-15T21:32:04.521Z,22.93
2023-02-15T21:34:31.900Z,22.83
2023-02-15T21:37:04.286Z,26.97
2023-02-15T21:39:40.281Z,24.93
2023-02-15T21:42:32.398Z,24.40
2023-02-15T21:45:23.276Z,21.77
2023-02-15T21:47:53.168Z,26.30
2023-02-15T21:50:43.178Z,22.67
2023-02-15T21:53:26.355Z,21.83
2023-02-15T21:55:59.290Z,25.13
2023-02-15T21:58:33.172Z,24.63
2023-02-15T22:01:04.978Z,24.23
2023-02-15T22:03:54.799Z,24.23
2023-02-15T22:06:22.179Z,20.97
2023-02-15T22:08:50.574Z,23.30
2023-02-15T22:11:27.289Z,21.63
2023-02-15T22:13:59.905Z,23.37
2023-02-15T22:16:27.032Z,21.03
2023-02-15T22:18:54.244Z,22.90
2023-02-15T22:21:27.721Z,22.53
2023-02-15T22:24:04.572Z,23.73
2023-02-15T22:26:31.728Z,20.03
2023-02-15T22:29:02.923Z,23.97
2023-02-15T22:31:30.217Z,26.07
2023-02-15T22:34:04.706Z,25.87
2023-02-15T22:36:37.583Z,21.57
2023-02-15T22:39:05.039Z,21.97
2023-02-15T22:41:32.419Z,24.77
2023-02-15T22:44:00.309Z,20.67
2023-02-15T22:46:27.528Z,22.30
2023-02-15T22:48:54.586Z,23.03
2023-02-15T22:51:24.751Z,21.27
2023-02-15T22:53:56.362Z,21.87
2023-02-15T22:56:35.849Z,19.23
2023-02-15T22:59:17.100Z,21.50
2023-02-15T23:01:49.016Z,22.17
2023-02-15T23:04:27.971Z,21.13
2023-02-15T23:06:58.941Z,22.20
2023-02-15T23:09:28.824Z,20.53
2023-02-15T23:11:56.909Z,20.40
2023-02-15T23:14:34.647Z,21.83
2023-02-15T23:17:01.918Z,21.90
2023-02-15T23:19:31.605Z,19.87
2023-02-15T23:21:58.727Z,21.97
2023-02-15T23:24:36.017Z,18.80
2023-02-15T23:27:21.592Z,20.93
2023-02-15T23:29:48.565Z,20.53
2023-02-15T23:32:16.064Z,18.20
2023-02-15T23:34:44.671Z,20.50
2023-02-15T23:37:18.910Z,18.00
2023-02-15T23:40:10.331Z,19.70
2023-02-15T23:42:37.804Z,21.67
2023-02-15T23:45:21.205Z,22.43
2023-02-15T23:48:11.556Z,18.37
2023-02-15T23:50:38.742Z,21.80
2023-02-15T23:53:05.857Z,22.50
2023-02-15T23:55:39.388Z,21.53
2023-02-15T23:58:17.919Z,17.97
